createdAt,value
2023-04-17T00:00:02.004Z,1019.05
2023-04-17T00:01:02.022Z,1019.03
2023-04-17T00:02:02.134Z,1019.05
2023-04-17T00:03:02.221Z,1019.04
2023-04-17T00:04:02.206Z,1019.06
2023-04-17T00:05:02.064Z,1019.04
2023-04-17T00:06:02.006Z,1019.04
2023-04-17T00:07:02.020Z,1019.04
2023-04-17T00:08:01.978Z,1019.03
2023-04-17T00:09:01.994Z,1019.02
2023-04-17T00:10:01.986Z,1019.01
2023-04-17T00:11:07.595Z,1019.06
2023-04-17T00:12:01.975Z,1019.01
2023-04-17T00:13:01.959Z,1019.01
2023-04-17T00:14:01.954Z,1019.04
2023-04-17T00:15:01.946Z,1019.00
2023-04-17T00:16:02.051Z,1018.99
2023-04-17T00:17:01.990Z,1019.00
2023-04-17T00:18:01.979Z,1019.01
2023-04-17T00:19:01.939Z,1018.92
2023-04-17T00:20:01.992Z,1018.96
2023-04-17T00:21:01.922Z,1018.96
2023-04-17T00:22:01.916Z,1018.90
2023-04-17T00:23:02.228Z,1018.93
2023-04-17T00:24:01.908Z,1018.92
2023-04-17T00:25:01.908Z,1018.92
2023-04-17T00:26:01.903Z,1018.90
2023-04-17T00:27:01.915Z,1018.92
2023-04-17T00:28:01.936Z,1018.93
2023-04-17T00:29:01.884Z,1018.94
2023-04-17T00:30:01.885Z,1018.93
2023-04-17T00:31:01.884Z,1018.91
2023-04-17T00:32:02.009Z,1018.88
2023-04-17T00:33:02.036Z,1018.90
2023-04-17T00:34:01.891Z,1018.94
2023-04-17T00:35:01.875Z,1018.93
2023-04-17T00:36:01.873Z,1018.92
2023-04-17T00:37:01.862Z,1018.91
2023-04-17T00:38:01.908Z,1018.90
2023-04-17T00:39:01.849Z,1018.89
2023-04-17T00:40:01.885Z,1018.88
2023-04-17T00:41:01.840Z,1018.86
2023-04-17T00:42:01.851Z,1018.86
2023-04-17T00:43:01.948Z,1018.88
2023-04-17T00:44:01.857Z,1018.88
2023-04-17T00:45:01.926Z,1018.87
2023-04-17T00:46:01.844Z,1018.86
2023-04-17T00:47:01.835Z,1018.89
2023-04-17T00:48:01.917Z,1018.86
2023-04-17T00:49:01.811Z,1018.85
2023-04-17T00:50:01.803Z,1018.87
2023-04-17T00:51:01.839Z,1018.86
2023-04-17T00:52:01.813Z,1018.83
2023-04-17T00:53:01.792Z,1018.84
2023-04-17T00:54:01.790Z,1018.81
2023-04-17T00:55:01.782Z,1018.81
2023-04-17T00:56:01.785Z,1018.80
2023-04-17T00:57:01.775Z,1018.81
2023-04-17T00:58:01.832Z,1018.80
2023-04-17T00:59:01.791Z,1018.79
2023-04-17T01:00:01.784Z,1018.77
2023-04-17T01:01:01.819Z,1018.77
2023-04-17T01:02:01.838Z,1018.81
2023-04-17T01:03:02.046Z,1018.76
2023-04-17T01:04:01.951Z,1018.78
2023-04-17T01:05:01.833Z,1018.78
2023-04-17T01:06:01.769Z,1018.77
2023-04-17T01:07:01.737Z,1018.77
2023-04-17T01:08:01.728Z,1018.77
2023-04-17T01:09:01.732Z,1018.79
2023-04-17T01:10:01.750Z,1018.76
2023-04-17T01:11:01.723Z,1018.82
2023-04-17T01:12:01.715Z,1018.80
2023-04-17T01:13:01.713Z,1018.83
2023-04-17T01:14:01.705Z,1018.79
2023-04-17T01:15:01.718Z,1018.77
2023-04-17T01:16:01.703Z,1018.80
2023-04-17T01:17:01.782Z,1018.79
2023-04-17T01:18:01.744Z,1018.79
2023-04-17T01:19:01.689Z,1018.79
2023-04-17T01:20:01.719Z,1018.80
2023-04-17T01:21:01.678Z,1018.80
2023-04-17T01:22:01.674Z,1018.80
2023-04-17T01:23:01.712Z,1018.80
2023-04-17T01:24:01.682Z,1018.83
2023-04-17T01:25:01.660Z,1018.82
2023-04-17T01:26:01.658Z,1018.79
2023-04-17T01:27:01.665Z,1018.78
2023-04-17T01:28:01.997Z,1018.83
2023-04-17T01:29:01.670Z,1018.78
2023-04-17T01:30:01.783Z,1018.78
2023-04-17T01:31:01.759Z,1018.80
2023-04-17T01:32:01.635Z,1018.80
2023-04-17T01:33:01.660Z,1018.77
2023-04-17T01:34:01.628Z,1018.79
2023-04-17T01:35:01.614Z,1018.79
2023-04-17T01:36:01.622Z,1018.76
2023-04-17T01:37:01.610Z,1018.83
2023-04-17T01:38:01.611Z,1018.81
2023-04-17T01:39:01.606Z,1018.80
2023-04-17T01:40:01.614Z,1018.76
2023-04-17T01:41:01.601Z,1018.79
2023-04-17T01:42:01.594Z,1018.78
2023-04-17T01:43:01.586Z,1018.78
2023-04-17T01:44:01.622Z,1018.76
2023-04-17T01:45:01.577Z,1018.78
2023-04-17T01:46:01.587Z,1018.77
2023-04-17T01:47:01.598Z,1018.82
2023-04-17T01:48:01.589Z,1018.80
2023-04-17T01:49:01.575Z,1018.82
2023-04-17T01:50:01.562Z,1018.82
2023-04-17T01:51:01.553Z,1018.81
2023-04-17T01:52:01.560Z,1018.85
2023-04-17T01:53:01.666Z,1018.84
2023-04-17T01:54:01.552Z,1018.83
2023-04-17T01:55:01.537Z,1018.85
2023-04-17T01:56:01.545Z,1018.85
2023-04-17T01:57:01.535Z,1018.86
2023-04-17T01:58:01.529Z,1018.83
2023-04-17T01:59:01.522Z,1018.84
2023-04-17T02:00:01.568Z,1018.86
2023-04-17T02:01:01.559Z,1018.83
2023-04-17T02:02:01.583Z,1018.89
2023-04-17T02:03:01.627Z,1018.88
2023-04-17T02:04:01.648Z,1018.87
2023-04-17T02:05:01.495Z,1018.85
2023-04-17T02:06:01.491Z,1018.90
2023-04-17T02:07:01.486Z,1018.85
2023-04-17T02:08:01.490Z,1018.91
2023-04-17T02:09:01.478Z,1018.86
2023-04-17T02:10:01.551Z,1018.89
2023-04-17T02:11:01.470Z,1018.87
2023-04-17T02:12:01.472Z,1018.91
2023-04-17T02:13:01.491Z,1018.87
2023-04-17T02:14:01.459Z,1018.88
2023-04-17T02:15:01.540Z,1018.91
2023-04-17T02:16:01.492Z,1018.87
2023-04-17T02:17:01.465Z,1018.87
2023-04-17T02:18:01.459Z,1018.89
2023-04-17T02:19:01.452Z,1018.89
2023-04-17T02:20:01.496Z,1018.91
2023-04-17T02:21:01.444Z,1018.88
2023-04-17T02:22:01.489Z,1018.86
2023-04-17T02:23:01.420Z,1018.86
2023-04-17T02:24:01.421Z,1018.85
2023-04-17T02:25:01.412Z,1018.83
2023-04-17T02:26:01.469Z,1018.83
2023-04-17T02:27:01.409Z,1018.87
2023-04-17T02:28:01.741Z,1018.85
2023-04-17T02:29:01.502Z,1018.86
2023-04-17T02:30:01.403Z,1018.85
2023-04-17T02:31:01.432Z,1018.86
2023-04-17T02:32:01.412Z,1018.86
2023-04-17T02:33:01.433Z,1018.87
2023-04-17T02:34:01.377Z,1018.86
2023-04-17T02:35:01.395Z,1018.85
2023-04-17T02:36:01.375Z,1018.87
2023-04-17T02:37:01.366Z,1018.88
2023-04-17T02:38:01.360Z,1018.89
2023-04-17T02:39:01.358Z,1018.87
2023-04-17T02:40:01.405Z,1018.84
2023-04-17T02:41:01.350Z,1018.87
2023-04-17T02:42:01.351Z,1018.86
2023-04-17T02:43:01.431Z,1018.88
2023-04-17T02:44:01.342Z,1018.87
2023-04-17T02:45:01.334Z,1018.92
2023-04-17T02:46:01.373Z,1018.88
2023-04-17T02:47:01.412Z,1018.90
2023-04-17T02:48:01.408Z,1018.90
2023-04-17T02:49:01.357Z,1018.93
2023-04-17T02:50:01.335Z,1018.93
2023-04-17T02:51:01.339Z,1018.92
2023-04-17T02:52:01.313Z,1018.92
2023-04-17T02:53:01.305Z,1018.88
2023-04-17T02:54:01.301Z,1018.91
2023-04-17T02:55:01.297Z,1018.92
2023-04-17T02:56:01.310Z,1018.93
2023-04-17T02:57:01.298Z,1018.95
2023-04-17T02:58:01.384Z,1018.92
2023-04-17T02:59:01.287Z,1018.94
2023-04-17T03:00:01.283Z,1018.95
2023-04-17T03:01:01.320Z,1018.95
2023-04-17T03:02:01.304Z,1018.96
2023-04-17T03:03:01.485Z,1019.01
2023-04-17T03:04:01.622Z,1018.92
2023-04-17T03:05:01.259Z,1018.95
2023-04-17T03:06:01.253Z,1018.96
2023-04-17T03:07:01.273Z,1018.96
2023-04-17T03:08:01.257Z,1018.94
2023-04-17T03:09:01.238Z,1018.93
2023-04-17T03:10:01.244Z,1018.91
2023-04-17T03:11:01.231Z,1018.88
2023-04-17T03:12:01.227Z,1018.89
2023-04-17T03:13:01.223Z,1018.92
2023-04-17T03:14:01.224Z,1018.92
2023-04-17T03:15:01.220Z,1018.92
2023-04-17T03:16:01.297Z,1018.93
2023-04-17T03:17:01.207Z,1018.93
2023-04-17T03:18:01.246Z,1018.96
2023-04-17T03:19:01.203Z,1018.93
2023-04-17T03:20:01.198Z,1018.96
2023-04-17T03:21:01.194Z,1018.99
2023-04-17T03:22:01.196Z,1018.98
2023-04-17T03:23:01.210Z,1018.98
2023-04-17T03:24:01.180Z,1019.03
2023-04-17T03:25:01.191Z,1019.03
2023-04-17T03:26:01.168Z,1019.03
2023-04-17T03:27:01.176Z,1019.01
2023-04-17T03:28:01.621Z,1019.04
2023-04-17T03:29:01.166Z,1019.03
2023-04-17T03:30:01.154Z,1019.02
2023-04-17T03:31:01.156Z,1019.02
2023-04-17T03:32:01.196Z,1019.03
2023-04-17T03:33:01.211Z,1019.03
2023-04-17T03:34:01.139Z,1019.03
2023-04-17T03:35:01.138Z,1019.02
2023-04-17T03:36:01.134Z,1019.02
2023-04-17T03:37:01.132Z,1019.00
2023-04-17T03:38:01.121Z,1019.01
2023-04-17T03:39:01.140Z,1019.01
2023-04-17T03:40:01.126Z,1019.00
2023-04-17T03:41:01.109Z,1019.02
2023-04-17T03:42:01.123Z,1019.00
2023-04-17T03:43:01.124Z,1019.02
2023-04-17T03:44:01.103Z,1019.03
2023-04-17T03:45:01.102Z,1019.04
2023-04-17T03:46:01.132Z,1019.04
2023-04-17T03:47:01.105Z,1019.04
2023-04-17T03:48:01.179Z,1019.02
2023-04-17T03:49:01.078Z,1019.03
2023-04-17T03:50:01.076Z,1019.01
2023-04-17T03:51:01.076Z,1019.02
2023-04-17T03:52:01.070Z,1019.04
2023-04-17T03:53:01.061Z,1019.05
2023-04-17T03:54:01.054Z,1019.01
2023-04-17T03:55:01.074Z,1019.03
2023-04-17T03:56:01.050Z,1019.07
2023-04-17T03:57:01.047Z,1019.05
2023-04-17T03:58:01.036Z,1019.05
2023-04-17T03:59:01.036Z,1019.04
2023-04-17T04:00:01.048Z,1019.07
2023-04-17T04:01:01.031Z,1019.08
2023-04-17T04:02:01.131Z,1019.11
2023-04-17T04:03:01.230Z,1019.11
2023-04-17T04:04:01.218Z,1019.11
2023-04-17T04:05:01.093Z,1019.12
2023-04-17T04:06:01.011Z,1019.13
2023-04-17T04:07:00.996Z,1019.16
2023-04-17T04:08:00.992Z,1019.20
2023-04-17T04:09:00.987Z,1019.16
2023-04-17T04:10:01.010Z,1019.18
2023-04-17T04:11:01.011Z,1019.17
2023-04-17T04:12:00.976Z,1019.16
2023-04-17T04:13:00.974Z,1019.15
2023-04-17T04:14:00.975Z,1019.18
2023-04-17T04:15:00.964Z,1019.16
2023-04-17T04:16:01.171Z,1019.18
2023-04-17T04:17:00.958Z,1019.19
2023-04-17T04:18:01.009Z,1019.19
2023-04-17T04:19:00.943Z,1019.21
2023-04-17T04:20:00.954Z,1019.14
2023-04-17T04:21:00.935Z,1019.16
2023-04-17T04:22:00.929Z,1019.19
2023-04-17T04:23:00.936Z,1019.14
2023-04-17T04:24:00.923Z,1019.13
2023-04-17T04:25:00.920Z,1019.18
2023-04-17T04:26:00.909Z,1019.15
2023-04-17T04:27:00.931Z,1019.13
2023-04-17T04:28:00.915Z,1019.17
2023-04-17T04:29:01.151Z,1019.16
2023-04-17T04:30:00.898Z,1019.17
2023-04-17T04:31:00.920Z,1019.14
2023-04-17T04:32:00.888Z,1019.14
2023-04-17T04:33:00.931Z,1019.20
2023-04-17T04:34:00.887Z,1019.19
2023-04-17T04:35:00.937Z,1019.24
2023-04-17T04:36:00.935Z,1019.23
2023-04-17T04:37:00.874Z,1019.23
2023-04-17T04:38:00.873Z,1019.28
2023-04-17T04:39:00.895Z,1019.26
2023-04-17T04:40:00.857Z,1019.27
2023-04-17T04:41:00.855Z,1019.27
2023-04-17T04:42:00.856Z,1019.29
2023-04-17T04:43:00.865Z,1019.27
2023-04-17T04:44:00.845Z,1019.26
2023-04-17T04:45:00.860Z,1019.28
2023-04-17T04:46:00.849Z,1019.29
2023-04-17T04:47:00.845Z,1019.27
2023-04-17T04:48:00.848Z,1019.33
2023-04-17T04:49:00.820Z,1019.32
2023-04-17T04:50:00.820Z,1019.31
2023-04-17T04:51:00.816Z,1019.30
2023-04-17T04:52:00.802Z,1019.30
2023-04-17T04:53:00.809Z,1019.30
2023-04-17T04:54:00.802Z,1019.34
2023-04-17T04:55:00.808Z,1019.33
2023-04-17T04:56:00.790Z,1019.35
2023-04-17T04:57:00.784Z,1019.32
2023-04-17T04:58:00.780Z,1019.36
2023-04-17T04:59:00.797Z,1019.33
2023-04-17T05:00:00.806Z,1019.39
2023-04-17T05:01:00.826Z,1019.40
2023-04-17T05:02:00.894Z,1019.41
2023-04-17T05:03:01.168Z,1019.38
2023-04-17T05:04:00.950Z,1019.43
2023-04-17T05:05:00.922Z,1019.45
2023-04-17T05:06:00.758Z,1019.46
2023-04-17T05:07:00.756Z,1019.46
2023-04-17T05:08:00.745Z,1019.44
2023-04-17T05:09:00.737Z,1019.48
2023-04-17T05:10:00.728Z,1019.48
2023-04-17T05:11:00.730Z,1019.46
2023-04-17T05:12:00.722Z,1019.47
2023-04-17T05:13:00.723Z,1019.52
2023-04-17T05:14:00.713Z,1019.50
2023-04-17T05:15:00.731Z,1019.52
2023-04-17T05:16:01.856Z,1019.52
2023-04-17T05:17:00.732Z,1019.56
2023-04-17T05:18:00.709Z,1019.56
2023-04-17T05:19:00.696Z,1019.55
2023-04-17T05:20:00.696Z,1019.55
2023-04-17T05:21:00.684Z,1019.57
2023-04-17T05:22:00.680Z,1019.55
2023-04-17T05:23:00.675Z,1019.59
2023-04-17T05:24:00.673Z,1019.56
2023-04-17T05:25:00.665Z,1019.58
2023-04-17T05:26:00.660Z,1019.55
2023-04-17T05:27:00.658Z,1019.57
2023-04-17T05:28:00.656Z,1019.61
2023-04-17T05:29:00.654Z,1019.57
2023-04-17T05:30:00.642Z,1019.61
2023-04-17T05:31:00.761Z,1019.59
2023-04-17T05:32:00.685Z,1019.61
2023-04-17T05:33:00.698Z,1019.58
2023-04-17T05:34:00.883Z,1019.58
2023-04-17T05:35:00.620Z,1019.63
2023-04-17T05:36:00.618Z,1019.59
2023-04-17T05:37:00.615Z,1019.57
2023-04-17T05:38:00.603Z,1019.61
2023-04-17T05:39:00.607Z,1019.60
2023-04-17T05:40:00.648Z,1019.64
2023-04-17T05:41:00.592Z,1019.64
2023-04-17T05:42:00.619Z,1019.62
2023-04-17T05:43:00.583Z,1019.64
2023-04-17T05:44:00.587Z,1019.62
2023-04-17T05:45:00.596Z,1019.65
2023-04-17T05:46:00.624Z,1019.60
2023-04-17T05:47:00.596Z,1019.61
2023-04-17T05:48:00.593Z,1019.67
2023-04-17T05:49:00.553Z,1019.68
2023-04-17T05:50:00.556Z,1019.67
2023-04-17T05:51:00.546Z,1019.69
2023-04-17T05:52:00.542Z,1019.64
2023-04-17T05:53:00.534Z,1019.65
2023-04-17T05:54:00.532Z,1019.63
2023-04-17T05:55:00.547Z,1019.66
2023-04-17T05:56:00.521Z,1019.65
2023-04-17T05:57:00.521Z,1019.66
2023-04-17T05:58:03.829Z,1019.71
2023-04-17T05:59:00.525Z,1019.67
2023-04-17T06:00:00.518Z,1019.65
2023-04-17T06:01:00.502Z,1019.69
2023-04-17T06:02:00.732Z,1019.71
2023-04-17T06:03:00.802Z,1019.67
2023-04-17T06:04:02.202Z,1019.68
2023-04-17T06:05:00.865Z,1019.68
2023-04-17T06:06:00.718Z,1019.72
2023-04-17T06:07:00.474Z,1019.72
2023-04-17T06:08:00.466Z,1019.76
2023-04-17T06:09:00.467Z,1019.78
2023-04-17T06:10:00.461Z,1019.77
2023-04-17T06:11:00.459Z,1019.77
2023-04-17T06:12:00.454Z,1019.80
2023-04-17T06:13:00.467Z,1019.80
2023-04-17T06:14:00.447Z,1019.83
2023-04-17T06:15:00.454Z,1019.80
2023-04-17T06:16:00.445Z,1019.81
2023-04-17T06:17:00.462Z,1019.81
2023-04-17T06:18:00.475Z,1019.79
2023-04-17T06:19:00.447Z,1019.83
2023-04-17T06:20:00.423Z,1019.78
2023-04-17T06:21:00.424Z,1019.79
2023-04-17T06:22:00.411Z,1019.78
2023-04-17T06:23:00.405Z,1019.80
2023-04-17T06:24:00.407Z,1019.77
2023-04-17T06:25:00.407Z,1019.80
2023-04-17T06:26:00.390Z,1019.80
2023-04-17T06:27:00.389Z,1019.76
2023-04-17T06:28:00.423Z,1019.80
2023-04-17T06:29:00.379Z,1019.79
2023-04-17T06:30:00.381Z,1019.81
2023-04-17T06:31:00.425Z,1019.81
2023-04-17T06:32:00.372Z,1019.83
2023-04-17T06:33:00.390Z,1019.81
2023-04-17T06:34:00.608Z,1019.83
2023-04-17T06:35:00.391Z,1019.85
2023-04-17T06:36:00.347Z,1019.84
2023-04-17T06:37:00.348Z,1019.86
2023-04-17T06:38:00.340Z,1019.87
2023-04-17T06:39:00.350Z,1019.88
2023-04-17T06:40:00.328Z,1019.87
2023-04-17T06:41:00.330Z,1019.88
2023-04-17T06:42:00.330Z,1019.90
2023-04-17T06:43:00.317Z,1019.89
2023-04-17T06:44:00.318Z,1019.90
2023-04-17T06:45:00.323Z,1019.90
2023-04-17T06:46:00.370Z,1019.92
2023-04-17T06:47:02.402Z,1019.93
2023-04-17T06:48:00.433Z,1019.95
2023-04-17T06:49:00.299Z,1019.98
2023-04-17T06:50:00.288Z,1020.02
2023-04-17T06:51:00.306Z,1020.00
2023-04-17T06:52:00.288Z,1020.01
2023-04-17T06:53:00.275Z,1020.02
2023-04-17T06:54:00.274Z,1020.01
2023-04-17T06:55:00.268Z,1020.06
2023-04-17T06:56:00.265Z,1020.05
2023-04-17T06:57:00.260Z,1020.05
2023-04-17T06:58:00.257Z,1020.06
2023-04-17T06:59:01.817Z,1020.08
2023-04-17T07:00:00.269Z,1020.11
2023-04-17T07:01:00.242Z,1020.07
2023-04-17T07:02:00.388Z,1020.08
2023-04-17T07:03:00.345Z,1020.05
2023-04-17T07:04:00.470Z,1020.04
2023-04-17T07:05:00.267Z,1020.09
2023-04-17T07:06:00.248Z,1020.08
2023-04-17T07:07:00.245Z,1020.05
2023-04-17T07:08:00.217Z,1020.10
2023-04-17T07:09:00.211Z,1020.09
2023-04-17T07:10:00.217Z,1020.09
2023-04-17T07:11:00.202Z,1020.10
2023-04-17T07:12:00.195Z,1020.10
2023-04-17T07:13:00.200Z,1020.13
2023-04-17T07:14:00.190Z,1020.11
2023-04-17T07:15:00.180Z,1020.17
2023-04-17T07:16:00.303Z,1020.15
2023-04-17T07:17:00.182Z,1020.16
2023-04-17T07:18:00.299Z,1020.16
2023-04-17T07:19:00.167Z,1020.20
2023-04-17T07:20:00.230Z,1020.19
2023-04-17T07:21:00.202Z,1020.22
2023-04-17T07:22:00.200Z,1020.24
2023-04-17T07:23:00.167Z,1020.22
2023-04-17T07:24:00.174Z,1020.23
2023-04-17T07:25:00.166Z,1020.26
2023-04-17T07:26:00.155Z,1020.27
2023-04-17T07:27:00.312Z,1020.25
2023-04-17T07:28:00.137Z,1020.29
2023-04-17T07:29:00.153Z,1020.27
2023-04-17T07:30:00.119Z,1020.31
2023-04-17T07:31:00.174Z,1020.34
2023-04-17T07:32:00.210Z,1020.38
2023-04-17T07:33:00.158Z,1020.43
2023-04-17T07:34:00.304Z,1020.44
2023-04-17T07:35:00.139Z,1020.46
2023-04-17T07:36:00.133Z,1020.51
2023-04-17T07:37:00.097Z,1020.45
2023-04-17T07:38:00.140Z,1020.48
2023-04-17T07:39:00.217Z,1020.48
2023-04-17T07:40:00.090Z,1020.51
2023-04-17T07:41:00.102Z,1020.49
2023-04-17T07:42:00.119Z,1020.47
2023-04-17T07:43:00.069Z,1020.50
2023-04-17T07:44:00.078Z,1020.45
2023-04-17T07:45:00.054Z,1020.48
2023-04-17T07:46:00.069Z,1020.46
2023-04-17T07:47:00.065Z,1020.48
2023-04-17T07:48:00.185Z,1020.52
2023-04-17T07:49:00.041Z,1020.47
2023-04-17T07:50:00.054Z,1020.49
2023-04-17T07:51:00.043Z,1020.53
2023-04-17T07:52:00.050Z,1020.52
2023-04-17T07:53:00.024Z,1020.45
2023-04-17T07:54:00.049Z,1020.46
2023-04-17T07:55:00.042Z,1020.50
2023-04-17T07:56:00.015Z,1020.48
2023-04-17T07:57:00.023Z,1020.44
2023-04-17T07:57:59.998Z,1020.50
2023-04-17T07:59:00.029Z,1020.49
2023-04-17T08:00:00.003Z,1020.45
2023-04-17T08:00:59.998Z,1020.47
2023-04-17T08:02:00.064Z,1020.50
2023-04-17T08:03:00.216Z,1020.56
2023-04-17T08:04:00.209Z,1020.50
2023-04-17T08:05:00.051Z,1020.45
2023-04-17T08:05:59.976Z,1020.48
2023-04-17T08:06:59.963Z,1020.51
2023-04-17T08:07:59.965Z,1020.53
2023-04-17T08:09:00.018Z,1020.53
2023-04-17T08:09:59.951Z,1020.53
2023-04-17T08:10:59.964Z,1020.57
2023-04-17T08:11:59.948Z,1020.60
2023-04-17T08:12:59.942Z,1020.60
2023-04-17T08:13:59.941Z,1020.59
2023-04-17T08:14:59.938Z,1020.59
2023-04-17T08:15:59.941Z,1020.62
2023-04-17T08:16:59.950Z,1020.62
2023-04-17T08:17:59.972Z,1020.69
2023-04-17T08:18:59.916Z,1020.60
2023-04-17T08:19:59.943Z,1020.60
2023-04-17T08:20:59.916Z,1020.65
2023-04-17T08:21:59.920Z,1020.67
2023-04-17T08:22:59.902Z,1020.67
2023-04-17T08:23:59.903Z,1020.69
2023-04-17T08:24:59.893Z,1020.69
2023-04-17T08:25:59.894Z,1020.74
2023-04-17T08:26:59.919Z,1020.74
2023-04-17T08:27:59.889Z,1020.70
2023-04-17T08:28:59.879Z,1020.67
2023-04-17T08:29:59.878Z,1020.71
2023-04-17T08:30:59.903Z,1020.68
2023-04-17T08:32:13.369Z,1020.86
2023-04-17T08:32:59.920Z,1020.69
2023-04-17T08:34:13.032Z,1020.68
2023-04-17T08:34:59.861Z,1020.70
2023-04-17T08:36:01.455Z,1020.73
2023-04-17T08:36:59.850Z,1020.66
2023-04-17T08:37:59.847Z,1020.69
2023-04-17T08:39:00.196Z,1020.69
2023-04-17T08:39:59.841Z,1020.73
2023-04-17T08:40:59.836Z,1020.74
2023-04-17T08:41:59.837Z,1020.77
2023-04-17T08:42:59.952Z,1020.81
2023-04-17T08:43:59.827Z,1020.75
2023-04-17T08:44:59.822Z,1020.77
2023-04-17T08:45:59.837Z,1020.76
2023-04-17T08:46:59.823Z,1020.81
2023-04-17T08:47:59.861Z,1020.84
2023-04-17T08:48:59.807Z,1020.79
2023-04-17T08:49:59.805Z,1020.84
2023-04-17T08:50:59.799Z,1020.82
2023-04-17T08:51:59.797Z,1020.86
2023-04-17T08:52:59.795Z,1020.84
2023-04-17T08:53:59.788Z,1020.88
2023-04-17T08:54:59.785Z,1020.83
2023-04-17T08:56:01.359Z,1020.83
2023-04-17T08:56:59.783Z,1020.82
2023-04-17T08:57:59.774Z,1020.83
2023-04-17T08:58:59.790Z,1020.84
2023-04-17T08:59:59.765Z,1020.82
2023-04-17T09:00:59.758Z,1020.80
2023-04-17T09:01:59.883Z,1020.83
2023-04-17T09:02:59.886Z,1020.80
2023-04-17T09:03:59.837Z,1020.81
2023-04-17T09:04:59.963Z,1020.80
2023-04-17T09:05:59.744Z,1020.83
2023-04-17T09:06:59.739Z,1020.83
2023-04-17T09:07:59.736Z,1020.86
2023-04-17T09:08:59.736Z,1020.86
2023-04-17T09:09:59.737Z,1020.85
2023-04-17T09:10:59.721Z,1020.87
2023-04-17T09:11:59.726Z,1020.89
2023-04-17T09:12:59.723Z,1020.88
2023-04-17T09:13:59.721Z,1020.91
2023-04-17T09:14:59.746Z,1020.88
2023-04-17T09:15:59.725Z,1020.84
2023-04-17T09:16:59.703Z,1020.86
2023-04-17T09:17:59.727Z,1020.88
2023-04-17T09:18:59.699Z,1020.90
2023-04-17T09:19:59.696Z,1020.88
2023-04-17T09:20:59.696Z,1020.86
2023-04-17T09:21:59.687Z,1020.90
2023-04-17T09:22:59.697Z,1020.96
2023-04-17T09:23:59.689Z,1020.88
2023-04-17T09:24:59.673Z,1020.92
2023-04-17T09:25:59.677Z,1020.91
2023-04-17T09:26:59.670Z,1020.90
2023-04-17T09:27:59.668Z,1020.82
2023-04-17T09:28:59.660Z,1020.91
2023-04-17T09:29:59.658Z,1020.89
2023-04-17T09:30:59.701Z,1020.86
2023-04-17T09:31:59.789Z,1020.95
2023-04-17T09:32:59.708Z,1020.87
2023-04-17T09:33:59.645Z,1020.89
2023-04-17T09:34:59.651Z,1020.90
2023-04-17T09:35:59.640Z,1020.94
2023-04-17T09:36:59.635Z,1020.92
2023-04-17T09:37:59.645Z,1020.92
2023-04-17T09:38:59.636Z,1020.90
2023-04-17T09:39:59.682Z,1020.88
2023-04-17T09:40:59.633Z,1020.93
2023-04-17T09:42:01.633Z,1020.89
2023-04-17T09:42:59.618Z,1020.90
2023-04-17T09:44:00.015Z,1020.92
2023-04-17T09:44:59.608Z,1020.98
2023-04-17T09:45:59.617Z,1020.92
2023-04-17T09:46:59.676Z,1020.96
2023-04-17T09:47:59.619Z,1020.95
2023-04-17T09:48:59.596Z,1020.90
2023-04-17T09:49:59.612Z,1020.94
2023-04-17T09:50:59.587Z,1020.94
2023-04-17T09:51:59.591Z,1020.99
2023-04-17T09:52:59.584Z,1021.01
2023-04-17T09:53:59.580Z,1020.99
2023-04-17T09:54:59.585Z,1021.01
2023-04-17T09:55:59.570Z,1020.97
2023-04-17T09:56:59.587Z,1021.00
2023-04-17T09:57:59.564Z,1020.99
2023-04-17T09:58:59.590Z,1021.01
2023-04-17T09:59:59.555Z,1021.00
2023-04-17T10:00:59.577Z,1021.02
2023-04-17T10:01:59.588Z,1021.04
2023-04-17T10:02:59.774Z,1021.00
2023-04-17T10:03:59.803Z,1021.01
2023-04-17T10:04:59.539Z,1020.99
2023-04-17T10:05:59.532Z,1020.99
2023-04-17T10:06:59.530Z,1020.98
2023-04-17T10:07:59.524Z,1020.90
2023-04-17T10:08:59.517Z,1020.94
2023-04-17T10:09:59.517Z,1020.91
2023-04-17T10:10:59.520Z,1020.86
2023-04-17T10:11:59.512Z,1020.84
2023-04-17T10:12:59.505Z,1020.87
2023-04-17T10:13:59.510Z,1020.87
2023-04-17T10:14:59.500Z,1020.86
2023-04-17T10:15:59.537Z,1020.88
2023-04-17T10:16:59.494Z,1020.89
2023-04-17T10:17:59.550Z,1020.82
2023-04-17T10:18:59.506Z,1020.85
2023-04-17T10:19:59.489Z,1020.83
2023-04-17T10:20:59.480Z,1020.87
2023-04-17T10:21:59.479Z,1020.84
2023-04-17T10:22:59.473Z,1020.85
2023-04-17T10:23:59.476Z,1020.85
2023-04-17T10:24:59.511Z,1020.85
2023-04-17T10:25:59.463Z,1020.83
2023-04-17T10:26:59.461Z,1020.81
2023-04-17T10:27:59.472Z,1020.83
2023-04-17T10:28:59.456Z,1020.79
2023-04-17T10:29:59.495Z,1020.76
2023-04-17T10:30:59.459Z,1020.80
2023-04-17T10:31:59.482Z,1020.80
2023-04-17T10:32:59.470Z,1020.79
2023-04-17T10:33:59.445Z,1020.70
2023-04-17T10:34:59.461Z,1020.77
2023-04-17T10:35:59.442Z,1020.72
2023-04-17T10:36:59.430Z,1020.73
2023-04-17T10:37:59.431Z,1020.74
2023-04-17T10:38:59.433Z,1020.72
2023-04-17T10:39:59.425Z,1020.68
2023-04-17T10:41:00.117Z,1020.64
2023-04-17T10:41:59.416Z,1020.69
2023-04-17T10:42:59.412Z,1020.66
2023-04-17T10:43:59.412Z,1020.60
2023-04-17T10:44:59.412Z,1020.65
2023-04-17T10:45:59.593Z,1020.69
2023-04-17T10:46:59.412Z,1020.63
2023-04-17T10:47:59.549Z,1020.66
2023-04-17T10:48:59.436Z,1020.67
2023-04-17T10:49:59.451Z,1020.61
2023-04-17T10:50:59.442Z,1020.63
2023-04-17T10:51:59.394Z,1020.61
2023-04-17T10:52:59.394Z,1020.54
2023-04-17T10:53:59.387Z,1020.51
2023-04-17T10:54:59.372Z,1020.56
2023-04-17T10:55:59.375Z,1020.55
2023-04-17T10:56:59.381Z,1020.56
2023-04-17T10:57:59.370Z,1020.58
2023-04-17T10:58:59.395Z,1020.60
2023-04-17T10:59:59.357Z,1020.59
2023-04-17T11:00:59.435Z,1020.61
2023-04-17T11:01:59.580Z,1020.56
2023-04-17T11:02:59.396Z,1020.56
2023-04-17T11:03:59.533Z,1020.54
2023-04-17T11:04:59.468Z,1020.61
2023-04-17T11:05:59.344Z,1020.60
2023-04-17T11:06:59.379Z,1020.60
2023-04-17T11:07:59.358Z,1020.49
2023-04-17T11:08:59.332Z,1020.47
2023-04-17T11:09:59.326Z,1020.50
2023-04-17T11:10:59.322Z,1020.53
2023-04-17T11:11:59.330Z,1020.49
2023-04-17T11:12:59.324Z,1020.47
2023-04-17T11:13:59.314Z,1020.48
2023-04-17T11:14:59.314Z,1020.45
2023-04-17T11:15:59.307Z,1020.45
2023-04-17T11:16:59.359Z,1020.43
2023-04-17T11:17:59.440Z,1020.45
2023-04-17T11:18:59.299Z,1020.50
2023-04-17T11:19:59.299Z,1020.54
2023-04-17T11:20:59.294Z,1020.52
2023-04-17T11:21:59.350Z,1020.51
2023-04-17T11:22:59.383Z,1020.51
2023-04-17T11:23:59.287Z,1020.55
2023-04-17T11:24:59.290Z,1020.53
2023-04-17T11:25:59.283Z,1020.53
2023-04-17T11:26:59.275Z,1020.52
2023-04-17T11:27:59.278Z,1020.55
2023-04-17T11:28:59.268Z,1020.49
2023-04-17T11:29:59.264Z,1020.49
2023-04-17T11:30:59.286Z,1020.53
2023-04-17T11:31:59.264Z,1020.53
2023-04-17T11:32:59.286Z,1020.43
2023-04-17T11:33:59.255Z,1020.48
2023-04-17T11:34:59.251Z,1020.49
2023-04-17T11:35:59.248Z,1020.46
2023-04-17T11:36:59.251Z,1020.51
2023-04-17T11:37:59.252Z,1020.59
2023-04-17T11:38:59.292Z,1020.50
2023-04-17T11:39:59.238Z,1020.54
2023-04-17T11:40:59.236Z,1020.49
2023-04-17T11:41:59.236Z,1020.54
2023-04-17T11:42:59.228Z,1020.57
2023-04-17T11:43:59.426Z,1020.56
2023-04-17T11:44:59.220Z,1020.50
2023-04-17T11:45:59.248Z,1020.51
2023-04-17T11:46:59.342Z,1020.54
2023-04-17T11:47:59.281Z,1020.54
2023-04-17T11:48:59.223Z,1020.54
2023-04-17T11:49:59.218Z,1020.55
2023-04-17T11:50:59.223Z,1020.56
2023-04-17T11:51:59.205Z,1020.53
2023-04-17T11:52:59.201Z,1020.57
2023-04-17T11:53:59.217Z,1020.56
2023-04-17T11:54:59.237Z,1020.45
2023-04-17T11:55:59.191Z,1020.51
2023-04-17T11:56:59.189Z,1020.49
2023-04-17T11:57:59.185Z,1020.53
2023-04-17T11:58:59.277Z,1020.54
2023-04-17T11:59:59.188Z,1020.53
2023-04-17T12:00:59.184Z,1020.49
2023-04-17T12:01:59.229Z,1020.47
2023-04-17T12:02:59.247Z,1020.40
2023-04-17T12:03:59.487Z,1020.44
2023-04-17T12:04:59.447Z,1020.45